Manorville, Pennsylvania
Current Conditions -  °F | °C
As of 4:15 AM on Monday 20 Oct 2014 (Local Time) from KBTP Reporting Station
Clear Clear  
Wind Chill: 43°   Ceiling: Unl
Heat Index: 43°   Visibility: 10mi
Dew Point: 34°   Wind: 3mph
Humidity: 70%   Direction: 160°SSE
Pressure: 30.04"   Gusts: NA
Location:  40.79°N, 79.52°W
Report Text: KBTP 200815Z AUTO 16003KT 10SM CLR 06/01 A3004 RMK AO1
Loading
Personal Weather Stations






























Interactive Weather Map
Tropical Storm Tracking
New forecast layout! Learn more

10-Day Weather Forecast

Advertisements
Track Severe Weather on mobile